Time;durP1;ratioP1;P1;durP2;ratioP2;P2;SDS_P1;SDS_P2;PMS_P1;PMS_P2;Temp;Humidity;BMP_temperature;BMP_pressure;BME280_temperature;BME280_humidity;BME280_pressure;Samples;Min_cycle;Max_cycle;Signal;HPM_P1;HPM_P2
2024/01/01 00:01:43;;;;;;;30.83;8.63;;;8.70;1.00;;;;;;5035607;28;20162;-82
2024/01/01 00:04:09;;;;;;;34.53;11.53;;;8.70;99.90;;;;;;5038256;28;20261;-83
2024/01/01 00:06:35;;;;;;;37.72;14.63;;;8.70;1.00;;;;;;5038596;28;20196;-83
2024/01/01 00:09:01;;;;;;;38.60;14.10;;;8.70;1.00;;;;;;5038209;28;20173;-83
2024/01/01 00:11:26;;;;;;;37.03;12.20;;;8.70;1.00;;;;;;5038398;28;20173;-82
2024/01/01 00:13:52;;;;;;;34.13;9.50;;;8.80;1.00;;;;;;5020659;28;20174;-84
2024/01/01 00:16:18;;;;;;;24.50;7.03;;;8.80;99.90;;;;;;5020429;28;20201;-83
2024/01/01 00:18:44;;;;;;;21.73;4.70;;;8.80;99.90;;;;;;5038040;28;20259;-83
2024/01/01 00:21:09;;;;;;;23.30;4.97;;;8.70;1.00;;;;;;5038188;28;20169;-82
2024/01/01 00:23:35;;;;;;;21.47;3.97;;;8.70;1.00;;;;;;5038524;28;20165;-83
2024/01/01 00:26:01;;;;;;;24.47;4.13;;;8.70;1.00;;;;;;5037830;28;20204;-83
2024/01/01 00:28:26;;;;;;;22.13;4.13;;;8.70;1.00;;;;;;5020283;28;20169;-82
2024/01/01 00:30:52;;;;;;;20.50;3.30;;;8.70;66.20;;;;;;5037860;28;20162;-82
2024/01/01 00:33:18;;;;;;;32.00;5.30;;;8.70;99.90;;;;;;5039072;28;20220;-84
2024/01/01 00:35:44;;;;;;;23.70;4.43;;;8.70;99.90;;;;;;5037777;28;20182;-83
2024/01/01 00:38:10;;;;;;;22.08;4.72;;;8.70;1.00;;;;;;5038105;28;20908;-84
2024/01/01 00:40:37;;;;;;;22.37;4.10;;;8.70;96.50;;;;;;5037861;28;20189;-82
2024/01/01 00:43:02;;;;;;;20.42;2.95;;;8.70;99.90;;;;;;5020258;28;20178;-83
2024/01/01 00:45:28;;;;;;;23.43;3.37;;;8.60;99.90;;;;;;5019995;28;20259;-84
2024/01/01 00:47:54;;;;;;;20.57;2.80;;;8.60;99.90;;;;;;5037889;28;20916;-83
2024/01/01 00:50:20;;;;;;;21.03;3.03;;;8.60;1.00;;;;;;5038381;28;20406;-84
2024/01/01 00:52:45;;;;;;;21.43;2.30;;;8.60;99.90;;;;;;5037896;28;20162;-84
2024/01/01 00:55:11;;;;;;;25.10;3.07;;;8.60;1.00;;;;;;5020287;28;20319;-82
2024/01/01 00:57:37;;;;;;;32.00;4.43;;;8.50;98.30;;;;;;5037797;28;20186;-84
2024/01/01 01:00:06;;;;;;;22.03;2.50;;;8.50;1.00;;;;;;5020023;28;20681;-83
2024/01/01 01:02:32;;;;;;;25.48;2.75;;;8.50;1.00;;;;;;5037911;28;20166;-83
2024/01/01 01:04:57;;;;;;;24.73;2.40;;;8.60;99.90;;;;;;5019867;28;20244;-83
2024/01/01 01:07:23;;;;;;;21.10;2.70;;;8.60;1.00;;;;;;5037987;28;20686;-82
2024/01/01 01:09:49;;;;;;;21.03;2.23;;;8.60;1.00;;;;;;5019904;28;20765;-83
2024/01/01 01:12:16;;;;;;;20.43;2.57;;;8.70;1.00;;;;;;5038218;28;20197;-83
2024/01/01 01:14:42;;;;;;;22.92;2.33;;;8.70;1.00;;;;;;5021081;28;20174;-84
2024/01/01 01:17:08;;;;;;;18.52;1.98;;;8.70;99.90;;;;;;5037658;28;20189;-84
2024/01/01 01:19:34;;;;;;;19.47;2.10;;;8.70;99.90;;;;;;5038066;28;20189;-83
2024/01/01 01:22:00;;;;;;;21.73;2.70;;;8.80;99.90;;;;;;5020349;28;20619;-84
2024/01/01 01:24:26;;;;;;;18.23;2.23;;;8.70;99.90;;;;;;5037907;28;20637;-83
2024/01/01 01:26:51;;;;;;;20.00;2.33;;;8.70;99.90;;;;;;5037318;28;20185;-84
2024/01/01 01:29:17;;;;;;;21.40;2.40;;;8.80;99.90;;;;;;5037543;28;20178;-84
2024/01/01 01:31:46;;;;;;;20.13;2.83;;;8.80;99.90;;;;;;5019226;28;20174;-83
2024/01/01 01:34:14;;;;;;;24.42;3.13;;;8.70;99.90;;;;;;5037259;28;20776;-83
2024/01/01 01:36:40;;;;;;;20.83;1.90;;;8.70;99.90;;;;;;5037400;28;20186;-83
2024/01/01 01:39:05;;;;;;;18.80;2.43;;;8.70;1.00;;;;;;5037402;28;20208;-84
2024/01/01 01:41:31;;;;;;;18.53;1.87;;;8.80;1.00;;;;;;5037729;28;20219;-84
2024/01/01 01:43:57;;;;;;;26.23;2.93;;;8.80;99.90;;;;;;5037471;28;20256;-84
2024/01/01 01:46:24;;;;;;;19.60;1.80;;;8.80;99.90;;;;;;5019298;28;20182;-83
2024/01/01 01:48:50;;;;;;;21.00;1.73;;;8.80;99.90;;;;;;5036989;28;20252;-82
2024/01/01 01:51:17;;;;;;;22.37;2.27;;;8.80;1.00;;;;;;5019275;28;20712;-83
2024/01/01 01:53:43;;;;;;;23.30;2.40;;;8.80;99.90;;;;;;5037032;28;20405;-83
2024/01/01 01:56:09;;;;;;;19.35;1.80;;;8.90;99.90;;;;;;5037118;28;20194;-82
2024/01/01 01:58:36;;;;;;;21.47;3.53;;;8.80;99.90;;;;;;5018654;28;20534;-83
2024/01/01 02:01:01;;;;;;;26.85;1.65;;;8.80;1.00;;;;;;5018861;28;20400;-84
2024/01/01 02:03:27;;;;;;;20.33;2.57;;;8.80;1.00;;;;;;5018362;28;20276;-83
2024/01/01 02:05:55;;;;;;;19.75;2.75;;;8.80;1.00;;;;;;5018743;28;20217;-84
2024/01/01 02:08:21;;;;;;;24.08;2.20;;;8.80;1.00;;;;;;5019060;28;20169;-83
2024/01/01 02:10:47;;;;;;;23.38;2.05;;;8.80;1.00;;;;;;5018627;28;20210;-83
2024/01/01 02:13:29;;;;;;;25.63;2.03;;;8.80;99.90;;;;;;5036629;28;20166;-83
2024/01/01 02:15:56;;;;;;;18.55;1.98;;;8.80;1.00;;;;;;5036876;28;20692;-83
2024/01/01 02:18:22;;;;;;;19.90;2.00;;;8.90;1.00;;;;;;5018935;28;20639;-82
2024/01/01 02:20:48;;;;;;;26.98;2.05;;;8.80;1.00;;;;;;5036477;28;20275;-84
2024/01/01 02:23:18;;;;;;;22.10;2.10;;;8.80;1.00;;;;;;5036358;28;20178;-83
2024/01/01 02:25:44;;;;;;;25.23;2.78;;;8.80;1.00;;;;;;5035914;28;20423;-83
2024/01/01 02:28:10;;;;;;;21.65;2.08;;;8.70;1.00;;;;;;5036507;28;20158;-83
2024/01/01 02:30:36;;;;;;;24.95;2.10;;;8.70;1.00;;;;;;5035982;28;20173;-81
2024/01/01 02:33:09;;;;;;;22.43;2.43;;;8.70;1.00;;;;;;5035059;28;20162;-82
2024/01/01 02:35:35;;;;;;;20.90;2.03;;;8.70;1.00;;;;;;5035332;28;20609;-82
2024/01/01 02:38:04;;;;;;;27.73;2.53;;;8.60;1.00;;;;;;5035252;28;20158;-83
2024/01/01 02:40:33;;;;;;;26.45;2.95;;;8.50;99.90;;;;;;5035304;28;20581;-83
2024/01/01 02:43:02;;;;;;;19.55;1.88;;;8.50;99.90;;;;;;5035184;28;20169;-81
2024/01/01 02:45:29;;;;;;;25.45;2.13;;;8.50;99.90;;;;;;5017095;28;20200;-82
2024/01/01 02:47:55;;;;;;;21.80;2.05;;;8.40;1.00;;;;;;5034994;28;20284;-81
2024/01/01 02:50:21;;;;;;;24.00;3.03;;;8.40;1.00;;;;;;5017189;28;20531;-82
2024/01/01 02:52:48;;;;;;;22.90;1.88;;;8.40;1.00;;;;;;5034586;28;20162;-83
2024/01/01 02:55:14;;;;;;;24.70;2.70;;;8.40;1.00;;;;;;5034682;28;20287;-82
2024/01/01 02:57:40;;;;;;;20.15;1.67;;;8.40;64.10;;;;;;5035011;28;20170;-81
2024/01/01 03:00:09;;;;;;;21.40;1.83;;;8.40;99.90;;;;;;5034297;28;20217;-82
2024/01/01 03:02:38;;;;;;;24.35;2.83;;;8.50;55.60;;;;;;5016184;28;20170;-81
2024/01/01 03:05:05;;;;;;;21.85;2.10;;;8.50;99.90;;;;;;5035238;28;20511;-80
2024/01/01 03:07:31;;;;;;;25.42;2.13;;;8.40;99.90;;;;;;5016797;28;20181;-82
2024/01/01 03:09:56;;;;;;;29.43;2.47;;;8.40;37.90;;;;;;5034647;28;20696;-81
2024/01/01 03:12:22;;;;;;;22.37;1.73;;;8.30;71.90;;;;;;5034951;28;20158;-80
2024/01/01 03:14:48;;;;;;;25.10;2.60;;;8.30;92.20;;;;;;5034610;28;20205;-82
2024/01/01 03:17:14;;;;;;;27.67;2.35;;;8.30;99.90;;;;;;5034509;28;20253;-82
2024/01/01 03:19:39;;;;;;;21.43;2.30;;;8.30;99.90;;;;;;5034296;28;20220;-82
2024/01/01 03:22:05;;;;;;;24.10;2.50;;;8.30;99.90;;;;;;5034723;28;20162;-80
2024/01/01 03:24:31;;;;;;;22.90;2.23;;;8.30;99.90;;;;;;5034185;28;20164;-82
2024/01/01 03:26:56;;;;;;;26.93;2.77;;;8.40;90.10;;;;;;5016295;28;20186;-82
2024/01/01 03:29:22;;;;;;;22.20;2.20;;;8.40;99.90;;;;;;5016578;28;20197;-82
2024/01/01 03:31:47;;;;;;;19.00;1.50;;;8.30;99.90;;;;;;5016622;28;20220;-81
2024/01/01 03:34:13;;;;;;;22.27;2.20;;;8.40;99.90;;;;;;5034484;28;20542;-82
2024/01/01 03:36:39;;;;;;;21.67;2.53;;;8.50;99.90;;;;;;5036103;28;20182;-82
2024/01/01 03:39:05;;;;;;;28.13;2.50;;;8.50;99.90;;;;;;5020876;28;20209;-82
2024/01/01 03:41:30;;;;;;;23.37;2.50;;;8.50;99.90;;;;;;5038768;28;20193;-82
2024/01/01 03:43:59;;;;;;;29.57;2.17;;;8.50;99.90;;;;;;5038223;28;20246;-82
2024/01/01 03:46:24;;;;;;;24.67;2.50;;;8.50;99.90;;;;;;5020694;28;20197;-82
2024/01/01 03:48:50;;;;;;;23.93;2.47;;;8.50;99.90;;;;;;5038626;28;20158;-83
2024/01/01 03:51:15;;;;;;;20.90;2.27;;;8.50;29.70;;;;;;5020912;28;20168;-82
2024/01/01 03:53:41;;;;;;;25.43;4.00;;;8.50;21.10;;;;;;5038713;28;20189;-82
2024/01/01 03:56:07;;;;;;;20.37;1.80;;;8.60;99.90;;;;;;5038856;28;20214;-83
2024/01/01 03:58:33;;;;;;;27.67;2.87;;;8.70;99.90;;;;;;5020542;28;20585;-81
2024/01/01 04:00:58;;;;;;;23.70;2.40;;;8.70;99.90;;;;;;5038665;28;20396;-82
2024/01/01 04:03:24;;;;;;;23.57;2.27;;;8.70;99.90;;;;;;5038712;28;20233;-81
2024/01/01 04:05:50;;;;;;;20.83;2.03;;;8.60;99.90;;;;;;5038241;28;20190;-82
2024/01/01 04:08:16;;;;;;;24.07;1.83;;;8.70;99.90;;;;;;5038607;28;20177;-83
2024/01/01 04:10:41;;;;;;;27.87;2.83;;;8.70;99.90;;;;;;5020348;28;20253;-83
2024/01/01 04:13:07;;;;;;;31.70;2.40;;;8.80;99.90;;;;;;5038549;28;20412;-82
2024/01/01 04:15:32;;;;;;;28.17;2.80;;;8.80;1.00;;;;;;5038373;28;20193;-82
2024/01/01 04:17:58;;;;;;;27.90;3.23;;;8.70;99.90;;;;;;5038183;28;20169;-83
2024/01/01 04:20:24;;;;;;;22.60;1.93;;;8.70;21.90;;;;;;5038618;28;20585;-82
2024/01/01 04:22:51;;;;;;;30.33;3.70;;;8.70;14.10;;;;;;5020195;28;20188;-82
2024/01/01 04:25:18;;;;;;;21.10;2.00;;;8.80;99.90;;;;;;5037828;28;20168;-82
2024/01/01 04:27:44;;;;;;;24.60;2.20;;;8.90;99.90;;;;;;5037717;28;20165;-83
2024/01/01 04:30:10;;;;;;;24.00;2.53;;;8.90;99.90;;;;;;5038033;28;20174;-82
2024/01/01 04:32:36;;;;;;;21.70;2.45;;;8.80;98.70;;;;;;5038211;28;20201;-81
2024/01/01 04:35:05;;;;;;;22.33;2.45;;;8.90;55.60;;;;;;5037878;28;20253;-82
2024/01/01 04:37:31;;;;;;;20.45;2.22;;;8.80;99.90;;;;;;5037649;28;20282;-83
2024/01/01 04:39:57;;;;;;;25.00;3.40;;;8.80;99.90;;;;;;5020052;28;20233;-82
2024/01/01 04:42:22;;;;;;;24.70;2.20;;;8.70;95.90;;;;;;5037682;28;20162;-84
2024/01/01 04:44:48;;;;;;;25.83;3.07;;;8.70;99.90;;;;;;5037976;28;20396;-82
2024/01/01 04:47:13;;;;;;;28.67;3.10;;;8.60;42.10;;;;;;5019601;28;20240;-83
2024/01/01 04:49:41;;;;;;;27.43;2.43;;;8.70;49.50;;;;;;5037412;28;20162;-84
2024/01/01 04:52:10;;;;;;;22.02;3.33;;;8.70;99.90;;;;;;5037658;28;20158;-83
2024/01/01 04:54:35;;;;;;;22.60;2.22;;;8.70;1.00;;;;;;5038020;28;20193;-83
2024/01/01 04:57:01;;;;;;;23.70;2.50;;;8.70;99.90;;;;;;5019668;28;20224;-83
2024/01/01 04:59:26;;;;;;;32.50;3.70;;;8.80;99.90;;;;;;5037332;28;20185;-82
2024/01/01 05:01:52;;;;;;;27.07;3.10;;;8.80;1.00;;;;;;5037455;28;20162;-83
2024/01/01 05:04:20;;;;;;;27.03;2.53;;;8.80;1.00;;;;;;5036997;28;20212;-82
2024/01/01 05:06:45;;;;;;;34.47;3.20;;;8.80;16.60;;;;;;5037025;28;20232;-83
2024/01/01 05:09:11;;;;;;;21.77;2.47;;;8.90;7.10;;;;;;5037170;28;20245;-82
2024/01/01 05:11:40;;;;;;;19.93;1.90;;;8.90;1.00;;;;;;5036796;28;20166;-83
2024/01/01 05:14:06;;;;;;;26.60;2.42;;;8.90;1.00;;;;;;5019295;28;20170;-81
2024/01/01 05:16:35;;;;;;;23.42;2.00;;;8.80;99.90;;;;;;5036890;28;20570;-82
2024/01/01 05:19:01;;;;;;;31.98;2.80;;;8.80;1.00;;;;;;5018911;28;20197;-81
2024/01/01 05:21:27;;;;;;;25.98;2.65;;;8.80;1.00;;;;;;5036930;28;20164;-82
2024/01/01 05:23:53;;;;;;;27.13;2.97;;;8.80;61.00;;;;;;5036300;28;20686;-82
2024/01/01 05:26:18;;;;;;;25.10;2.80;;;8.90;30.70;;;;;;5036183;28;20185;-82
2024/01/01 05:28:44;;;;;;;27.27;2.00;;;8.80;1.00;;;;;;5036342;28;20216;-83
2024/01/01 05:31:09;;;;;;;26.20;2.83;;;8.90;1.00;;;;;;5036454;28;20173;-83
2024/01/01 05:33:38;;;;;;;28.83;2.53;;;8.80;10.10;;;;;;5036425;28;20551;-82
2024/01/01 05:36:12;;;;;;;23.27;2.58;;;8.80;1.00;;;;;;5037110;28;20236;-82
2024/01/01 05:38:38;;;;;;;21.27;2.00;;;8.80;10.00;;;;;;5036357;28;20168;-83
2024/01/01 05:41:03;;;;;;;24.30;2.10;;;8.70;34.80;;;;;;5036800;28;20580;-82
2024/01/01 05:43:31;;;;;;;28.80;2.50;;;8.60;99.90;;;;;;5018340;28;20428;-83
2024/01/01 05:45:57;;;;;;;32.28;2.50;;;8.60;1.00;;;;;;5035503;28;20182;-82
2024/01/01 05:48:23;;;;;;;25.75;2.45;;;8.70;54.80;;;;;;5036195;28;20162;-82
2024/01/01 05:50:49;;;;;;;26.90;2.27;;;8.70;1.00;;;;;;5017894;28;20192;-81
2024/01/01 05:53:14;;;;;;;20.67;2.80;;;8.70;1.00;;;;;;5018075;28;20174;-81
2024/01/01 05:55:40;;;;;;;21.03;1.97;;;8.70;1.00;;;;;;5035301;28;20281;-83
2024/01/01 05:58:06;;;;;;;23.33;2.63;;;8.80;1.00;;;;;;5035396;28;20169;-82
2024/01/01 06:00:36;;;;;;;28.80;3.33;;;8.80;1.00;;;;;;5034358;28;20218;-82
2024/01/01 06:03:03;;;;;;;22.95;2.80;;;8.80;1.00;;;;;;5017856;28;20599;-82
2024/01/01 06:05:29;;;;;;;23.15;2.13;;;8.90;1.00;;;;;;5018047;28;20170;-83
2024/01/01 06:07:55;;;;;;;34.40;3.13;;;8.80;1.00;;;;;;5035577;28;20584;-82
2024/01/01 06:10:20;;;;;;;29.27;3.00;;;8.80;1.00;;;;;;5035328;28;20527;-82
2024/01/01 06:12:49;;;;;;;27.43;2.37;;;8.70;1.00;;;;;;5034800;28;20409;-81
2024/01/01 06:15:15;;;;;;;25.45;3.20;;;8.80;1.00;;;;;;5034631;28;20653;-81
2024/01/01 06:17:40;;;;;;;26.60;2.40;;;8.80;1.00;;;;;;5017109;28;20174;-82
2024/01/01 06:20:07;;;;;;;23.80;2.63;;;8.80;1.00;;;;;;5035061;28;20199;-83
2024/01/01 06:22:32;;;;;;;35.42;3.95;;;8.80;1.00;;;;;;5035011;28;20243;-81
2024/01/01 06:24:58;;;;;;;22.77;1.90;;;8.80;1.00;;;;;;5035298;28;20213;-81
2024/01/01 06:27:24;;;;;;;21.57;3.13;;;8.80;1.00;;;;;;5034606;28;20178;-80
2024/01/01 06:29:49;;;;;;;29.40;2.80;;;8.80;1.00;;;;;;5035164;28;20166;-81
2024/01/01 06:32:15;;;;;;;22.90;1.60;;;8.80;1.00;;;;;;5017975;28;20173;-81
2024/01/01 06:34:41;;;;;;;20.17;2.50;;;8.80;15.80;;;;;;5035196;28;20208;-82
2024/01/01 06:37:07;;;;;;;22.30;1.87;;;8.80;23.20;;;;;;5017277;28;20271;-81
2024/01/01 06:39:33;;;;;;;21.55;2.45;;;8.70;6.90;;;;;;5017778;28;20983;-81
2024/01/01 06:41:59;;;;;;;20.30;2.30;;;8.80;31.50;;;;;;5035236;28;20185;-82
2024/01/01 06:44:27;;;;;;;27.30;2.80;;;8.80;76.50;;;;;;5035445;28;20170;-81
2024/01/01 06:46:52;;;;;;;21.17;2.42;;;8.70;53.40;;;;;;5034979;28;20416;-81
2024/01/01 06:49:21;;;;;;;25.17;2.60;;;8.60;71.70;;;;;;5017122;28;20228;-82
2024/01/01 06:51:52;;;;;;;28.02;3.55;;;8.40;88.40;;;;;;5035179;28;20215;-83
2024/01/01 06:54:18;;;;;;;23.92;2.38;;;8.40;99.90;;;;;;5035077;28;20166;-82
2024/01/01 06:56:44;;;;;;;24.40;2.30;;;8.30;99.90;;;;;;5035395;28;20181;-81
2024/01/01 06:59:12;;;;;;;25.90;1.90;;;8.30;99.90;;;;;;5017176;28;20224;-82
2024/01/01 07:01:37;;;;;;;23.02;1.67;;;8.30;1.00;;;;;;5034815;28;20190;-82
2024/01/01 07:04:03;;;;;;;27.80;2.77;;;8.30;99.90;;;;;;5034828;28;20205;-81
2024/01/01 07:06:29;;;;;;;23.30;2.47;;;8.30;64.00;;;;;;5034460;28;20178;-80
2024/01/01 07:08:55;;;;;;;24.27;3.10;;;8.30;1.00;;;;;;5034826;28;20509;-81
2024/01/01 07:11:20;;;;;;;24.57;2.20;;;8.30;1.00;;;;;;5034314;28;20762;-81
2024/01/01 07:13:46;;;;;;;23.30;2.30;;;8.30;24.50;;;;;;5034600;28;20190;-82
2024/01/01 07:16:12;;;;;;;22.90;2.10;;;8.30;55.30;;;;;;5034557;28;20546;-80
2024/01/01 07:18:37;;;;;;;23.30;2.40;;;8.40;95.00;;;;;;5034687;28;20244;-81
2024/01/01 07:21:06;;;;;;;23.00;3.13;;;8.50;99.90;;;;;;5034223;28;20204;-81
2024/01/01 07:23:32;;;;;;;22.15;2.50;;;8.60;99.90;;;;;;5016612;28;20538;-82
2024/01/01 07:25:57;;;;;;;21.53;2.60;;;8.60;99.90;;;;;;5034141;28;20276;-81
2024/01/01 07:28:25;;;;;;;21.33;2.20;;;8.60;99.90;;;;;;5033980;28;20405;-81
2024/01/01 07:30:51;;;;;;;21.42;2.08;;;8.70;93.30;;;;;;5016795;28;20203;-82
2024/01/01 07:33:17;;;;;;;25.77;2.40;;;8.70;99.90;;;;;;5034699;28;20543;-81
2024/01/01 07:35:43;;;;;;;22.50;1.87;;;8.70;99.90;;;;;;5034835;28;20192;-80
2024/01/01 07:38:09;;;;;;;22.85;2.35;;;8.70;99.90;;;;;;5034417;28;20423;-81
2024/01/01 07:40:38;;;;;;;22.47;2.50;;;8.60;26.30;;;;;;5035343;28;20182;-82
2024/01/01 07:43:04;;;;;;;24.52;2.10;;;8.60;99.90;;;;;;5034303;28;20604;-83
2024/01/01 07:45:29;;;;;;;26.67;2.70;;;8.70;99.90;;;;;;5034576;28;20162;-82
2024/01/01 07:47:55;;;;;;;24.13;2.30;;;8.60;99.90;;;;;;5034585;28;20173;-82
2024/01/01 07:50:21;;;;;;;22.73;2.27;;;8.60;99.90;;;;;;5034257;28;20166;-81
2024/01/01 07:52:47;;;;;;;26.00;1.87;;;8.50;99.90;;;;;;5034449;28;20165;-82
2024/01/01 07:55:13;;;;;;;22.40;2.42;;;8.60;99.90;;;;;;5034328;28;20631;-82
2024/01/01 07:57:39;;;;;;;27.63;2.50;;;8.60;99.90;;;;;;5033904;28;20220;-82
2024/01/01 08:00:06;;;;;;;24.30;1.88;;;8.50;99.90;;;;;;5034235;28;20332;-83
2024/01/01 08:02:32;;;;;;;18.38;1.23;;;8.60;1.00;;;;;;5034007;28;20246;-81
2024/01/01 08:04:59;;;;;;;21.10;1.40;;;8.60;1.00;;;;;;5033954;28;20655;-81
2024/01/01 08:07:25;;;;;;;21.83;1.50;;;8.60;99.90;;;;;;5016190;28;20185;-81
2024/01/01 08:09:50;;;;;;;20.47;1.67;;;8.50;99.90;;;;;;5016487;28;20350;-80
2024/01/01 08:12:16;;;;;;;21.90;1.50;;;8.50;99.90;;;;;;5033719;28;20412;-82
2024/01/01 08:14:42;;;;;;;18.97;1.60;;;8.50;99.90;;;;;;5016093;28;20634;-81
2024/01/01 08:17:08;;;;;;;21.67;1.73;;;8.50;99.90;;;;;;5033819;28;20219;-79
2024/01/01 08:19:34;;;;;;;18.15;1.00;;;8.40;1.00;;;;;;5033740;28;20185;-81
2024/01/01 08:22:00;;;;;;;19.65;1.00;;;8.50;99.90;;;;;;5033754;28;20244;-81
2024/01/01 08:24:26;;;;;;;18.23;1.27;;;8.40;25.00;;;;;;5036774;28;20166;-81
2024/01/01 08:26:52;;;;;;;19.23;1.20;;;8.40;47.50;;;;;;5037280;28;20188;-82
2024/01/01 08:29:17;;;;;;;19.17;1.50;;;8.40;93.30;;;;;;5037439;28;20194;-81
2024/01/01 08:31:43;;;;;;;17.73;1.13;;;8.40;69.20;;;;;;5037438;28;20170;-81
2024/01/01 08:34:09;;;;;;;17.73;0.93;;;8.40;1.00;;;;;;5037210;28;20170;-81
2024/01/01 08:36:35;;;;;;;17.23;1.10;;;8.40;19.20;;;;;;5038281;28;20247;-83
2024/01/01 08:39:01;;;;;;;18.33;1.47;;;8.40;69.50;;;;;;5040183;28;20157;-82
2024/01/01 08:41:26;;;;;;;16.87;0.73;;;8.40;5.60;;;;;;5038769;28;20409;-81
2024/01/01 08:43:56;;;;;;;18.00;1.53;;;8.40;1.00;;;;;;5020047;28;20500;-80
2024/01/01 08:46:26;;;;;;;17.45;1.10;;;8.40;68.50;;;;;;5038438;28;20300;-81
2024/01/01 08:48:52;;;;;;;18.92;1.00;;;8.40;34.40;;;;;;5038212;28;20651;-82
2024/01/01 08:51:21;;;;;;;19.13;1.03;;;8.50;81.20;;;;;;5037080;28;20352;-81
2024/01/01 08:53:47;;;;;;;17.08;1.00;;;8.40;56.90;;;;;;5021282;28;20421;-81
2024/01/01 08:56:12;;;;;;;16.80;0.80;;;8.40;95.00;;;;;;5037604;28;20264;-80
2024/01/01 08:58:38;;;;;;;17.20;1.10;;;8.50;11.20;;;;;;5038506;28;20162;-82
2024/01/01 09:01:05;;;;;;;17.37;0.83;;;8.50;99.90;;;;;;5037719;28;20198;-82
2024/01/01 09:03:31;;;;;;;17.15;1.10;;;8.50;43.40;;;;;;5036560;28;20178;-81
2024/01/01 09:05:58;;;;;;;17.87;1.17;;;8.50;37.50;;;;;;5036788;28;20212;-81
2024/01/01 09:08:24;;;;;;;17.63;1.15;;;8.50;16.90;;;;;;5019599;28;20188;-82
2024/01/01 09:10:50;;;;;;;17.17;0.90;;;8.40;99.90;;;;;;5037059;28;20665;-82
2024/01/01 09:13:16;;;;;;;17.42;1.10;;;8.50;87.90;;;;;;5037301;28;20635;-82
2024/01/01 09:15:42;;;;;;;18.00;1.03;;;8.50;98.80;;;;;;5019613;28;20236;-82
2024/01/01 09:18:07;;;;;;;20.55;1.05;;;8.40;5.10;;;;;;5037088;28;20389;-82
2024/01/01 09:20:34;;;;;;;17.43;1.03;;;8.40;60.20;;;;;;5037376;28;20661;-80
2024/01/01 09:23:00;;;;;;;18.80;1.30;;;8.50;29.90;;;;;;5019465;28;20161;-83
2024/01/01 09:25:26;;;;;;;17.17;1.00;;;8.60;36.00;;;;;;5037763;28;20162;-82
2024/01/01 09:27:52;;;;;;;17.70;1.30;;;8.60;64.50;;;;;;5036893;28;20158;-81
2024/01/01 09:30:18;;;;;;;18.23;1.20;;;8.70;23.70;;;;;;5036732;28;20166;-82
2024/01/01 09:32:44;;;;;;;16.60;0.80;;;8.60;73.10;;;;;;5019008;28;20170;-82
2024/01/01 09:35:09;;;;;;;17.73;1.10;;;8.60;43.60;;;;;;5036174;28;20401;-81
2024/01/01 09:37:37;;;;;;;18.20;1.10;;;8.60;25.10;;;;;;5036623;28;20255;-81
2024/01/01 09:40:04;;;;;;;17.00;1.00;;;8.60;1.00;;;;;;5018626;28;20684;-82
2024/01/01 09:42:29;;;;;;;17.60;0.93;;;8.60;99.90;;;;;;5019213;28;20496;-82
2024/01/01 09:44:55;;;;;;;17.37;1.00;;;8.60;33.40;;;;;;5036256;28;20173;-81
2024/01/01 09:47:24;;;;;;;20.17;1.47;;;8.70;67.40;;;;;;5036329;28;20185;-81
2024/01/01 09:49:50;;;;;;;20.70;1.60;;;8.70;99.90;;;;;;5037282;28;20174;-83
2024/01/01 09:52:15;;;;;;;17.90;0.90;;;8.80;99.90;;;;;;5036068;28;20168;-80
2024/01/01 09:54:41;;;;;;;17.03;1.00;;;8.70;57.90;;;;;;5019390;28;20176;-82
2024/01/01 09:57:07;;;;;;;20.70;1.50;;;8.80;68.00;;;;;;5018114;28;20669;-82
2024/01/01 09:59:36;;;;;;;22.47;2.83;;;8.80;70.10;;;;;;5037390;28;20527;-83
2024/01/01 10:02:09;;;;;;;17.88;1.60;;;9.00;98.60;;;;;;5020321;28;20170;-83
2024/01/01 10:04:35;;;;;;;18.30;1.15;;;9.10;99.90;;;;;;5035800;28;20595;-82
2024/01/01 10:07:01;;;;;;;16.35;0.95;;;9.10;98.70;;;;;;5018508;28;20182;-82
2024/01/01 10:09:28;;;;;;;18.08;1.45;;;9.20;90.50;;;;;;5017307;28;20316;-81
2024/01/01 10:12:15;;;;;;;17.65;1.20;;;9.10;78.10;;;;;;5035896;28;20522;-81
2024/01/01 10:14:49;;;;;;;19.40;1.27;;;9.20;99.90;;;;;;5017965;28;20228;-81
2024/01/01 10:17:17;;;;;;;18.98;1.30;;;9.20;92.40;;;;;;5018104;28;20224;-81
2024/01/01 10:19:59;;;;;;;20.45;2.17;;;9.20;28.10;;;;;;5036571;28;20181;-81
2024/01/01 10:22:29;;;;;;;17.67;1.52;;;9.20;99.90;;;;;;5035779;28;20189;-82
2024/01/01 10:25:12;;;;;;;19.52;1.63;;;9.20;54.10;;;;;;5035427;28;20199;-82
2024/01/01 10:27:38;;;;;;;23.80;1.50;;;9.30;35.10;;;;;;5035663;28;20178;-81
2024/01/01 10:30:05;;;;;;;19.07;2.27;;;9.30;35.40;;;;;;5017846;28;20311;-80
2024/01/01 10:32:34;;;;;;;18.15;1.48;;;9.30;40.90;;;;;;5035428;28;20458;-82
2024/01/01 10:35:02;;;;;;;19.92;2.03;;;9.20;22.00;;;;;;5035553;28;20647;-82
2024/01/01 10:37:32;;;;;;;19.05;2.70;;;9.20;39.00;;;;;;5017622;28;20221;-82
2024/01/01 10:40:05;;;;;;;18.90;1.55;;;9.20;63.60;;;;;;5036162;28;20185;-82
2024/01/01 10:42:34;;;;;;;22.70;2.45;;;9.20;72.70;;;;;;5035689;28;20141;-80
2024/01/01 10:45:03;;;;;;;19.63;2.10;;;9.20;37.20;;;;;;5018135;28;20169;-81
2024/01/01 10:47:29;;;;;;;19.88;2.13;;;9.20;56.00;;;;;;5018502;28;20186;-81
2024/01/01 10:50:27;;;;;;;22.73;1.70;;;9.10;35.30;;;;;;5017996;28;20216;-83
2024/01/01 10:53:33;;;;;;;20.83;1.85;;;9.10;58.40;;;;;;5004520;28;20161;-82
2024/01/01 10:56:25;;;;;;;17.67;1.42;;;9.10;85.60;;;;;;5034821;28;20185;-81
2024/01/01 10:59:02;;;;;;;19.33;1.38;;;9.10;28.70;;;;;;5017127;28;20170;-83
2024/01/01 11:01:29;;;;;;;19.90;2.58;;;9.20;30.30;;;;;;5035771;28;20212;-80
2024/01/01 11:03:55;;;;;;;18.08;1.70;;;9.20;29.00;;;;;;5017337;28;20189;-84
2024/01/01 11:06:24;;;;;;;17.30;1.10;;;9.30;1.00;;;;;;5016800;28;20194;-81
2024/01/01 11:08:57;;;;;;;19.77;1.98;;;9.30;21.60;;;;;;5017484;28;20966;-81
2024/01/01 11:11:33;;;;;;;19.00;1.25;;;9.30;5.70;;;;;;5017508;28;20205;-82
2024/01/01 11:13:59;;;;;;;17.75;1.50;;;9.30;1.00;;;;;;5018094;28;20161;-83
2024/01/01 11:16:26;;;;;;;16.92;1.55;;;9.30;1.00;;;;;;5035687;28;20192;-82
2024/01/01 11:18:53;;;;;;;17.10;1.17;;;9.30;1.00;;;;;;5016625;28;20161;-81
2024/01/01 11:21:32;;;;;;;21.30;1.60;;;9.30;1.00;;;;;;5035451;28;20221;-82
2024/01/01 11:24:01;;;;;;;23.58;2.83;;;9.30;1.00;;;;;;5034241;28;20244;-83
2024/01/01 11:26:34;;;;;;;17.20;1.33;;;9.30;1.00;;;;;;5017121;28;20189;-82
2024/01/01 11:29:06;;;;;;;19.60;1.58;;;9.30;1.00;;;;;;5034262;28;20558;-82
2024/01/01 11:31:33;;;;;;;17.42;1.48;;;9.20;1.00;;;;;;5034891;28;20161;-81
2024/01/01 11:34:06;;;;;;;19.08;2.90;;;9.30;1.00;;;;;;5016185;28;20206;-82
2024/01/01 11:36:33;;;;;;;18.48;1.23;;;9.30;1.00;;;;;;5034165;28;20182;-81
2024/01/01 11:38:59;;;;;;;22.50;3.33;;;9.30;1.00;;;;;;5016035;28;20165;-81
2024/01/01 11:41:29;;;;;;;18.40;2.58;;;9.30;1.00;;;;;;5016384;28;20196;-80
2024/01/01 11:44:14;;;;;;;19.05;1.85;;;9.30;48.30;;;;;;5016173;28;20196;-81
2024/01/01 11:46:40;;;;;;;19.35;1.92;;;9.30;99.90;;;;;;5016364;28;20674;-81
2024/01/01 11:49:07;;;;;;;21.35;1.85;;;9.30;1.00;;;;;;5034365;28;20162;-81
2024/01/01 11:51:51;;;;;;;18.23;1.38;;;9.30;1.00;;;;;;5033935;28;20654;-80
2024/01/01 11:54:17;;;;;;;16.95;1.20;;;9.30;39.60;;;;;;5016107;28;20170;-83
2024/01/01 11:56:48;;;;;;;26.50;3.88;;;9.30;1.00;;;;;;5016857;28;20272;-81
2024/01/01 11:59:16;;;;;;;26.08;3.88;;;9.40;99.90;;;;;;5018818;28;20617;-82
2024/01/01 12:01:43;;;;;;;23.45;2.65;;;9.50;29.70;;;;;;5037853;28;20165;-81
2024/01/01 12:04:10;;;;;;;20.80;1.65;;;9.40;99.90;;;;;;5037385;28;20209;-81
2024/01/01 12:06:41;;;;;;;23.42;2.85;;;9.50;99.90;;;;;;5037461;28;20182;-82
2024/01/01 12:09:09;;;;;;;19.38;1.75;;;9.40;99.90;;;;;;5037362;28;20244;-79
2024/01/01 12:11:42;;;;;;;20.10;2.25;;;9.50;99.90;;;;;;5037664;28;20170;-80
2024/01/01 12:14:09;;;;;;;23.02;2.38;;;9.50;99.90;;;;;;5019545;28;20158;-81
2024/01/01 12:16:36;;;;;;;22.38;2.17;;;9.40;99.90;;;;;;5037248;28;20186;-81
2024/01/01 12:19:19;;;;;;;22.02;2.03;;;9.50;99.90;;;;;;5037675;28;20162;-82
2024/01/01 12:21:45;;;;;;;19.58;2.10;;;9.40;80.20;;;;;;5037019;28;20146;-82
2024/01/01 12:24:16;;;;;;;21.67;2.28;;;9.50;99.90;;;;;;5019704;28;20170;-80
2024/01/01 12:26:43;;;;;;;20.73;1.98;;;9.50;99.90;;;;;;5036767;28;20185;-81
2024/01/01 12:29:14;;;;;;;20.15;2.38;;;9.50;1.00;;;;;;5037254;28;20230;-82
2024/01/01 12:31:46;;;;;;;20.52;2.00;;;9.50;99.90;;;;;;5037355;28;20211;-82
2024/01/01 12:34:14;;;;;;;21.38;2.55;;;9.50;99.90;;;;;;5036988;28;20225;-80
2024/01/01 12:36:40;;;;;;;18.50;2.22;;;9.50;1.00;;;;;;5036990;28;20246;-81
2024/01/01 12:39:06;;;;;;;19.42;2.20;;;9.50;31.00;;;;;;5036722;28;20162;-81
2024/01/01 12:41:32;;;;;;;20.53;3.07;;;9.40;1.00;;;;;;5036942;28;20173;-81
2024/01/01 12:44:01;;;;;;;25.10;2.40;;;9.40;1.00;;;;;;5036834;28;20165;-81
2024/01/01 12:46:27;;;;;;;29.35;3.05;;;9.50;99.90;;;;;;5036613;28;20181;-81
2024/01/01 12:48:53;;;;;;;24.35;2.92;;;9.40;99.90;;;;;;5036644;28;20170;-82
2024/01/01 12:51:27;;;;;;;24.10;2.53;;;9.40;99.90;;;;;;5018678;28;20261;-81